CheckWX is a tool to help pilots better visualize weather data.  It is not intended as a substitute for an official pre-flight weather briefing.

05:28:38 UTC

DIAP METAR
Port Bouet Airport
Abidjan, Côte D’Ivoire
Current

29 mins ago

DIAP 200500Z 29007KT 8000 -RA BKN011 FEW020CB 24/22 Q1010 NOSIG
Observed
Feb-20 @ 05:00 UTC
Wind
  • 290° at 7 KTS
Visibility
7,998 meters
Flight Rules
MVFR
Conditions
Light Rain
Cloud Levels
  • Broken at 1,100' AGL
  • Few at 2,000' AGL
Temperature
24°C / 75°F
Dewpoint
22°C / 72°F
Humidity
89%
Altimeter
29.82" Hg
Pressure
1009.92 hPa
Previous

59 mins ago

DIAP 200430Z 30007KT 8000 -RA BKN011 FEW020CB 24/21 Q1009 NOSIG
Observed
Feb-20 @ 04:30 UTC
Wind
  • 300° at 7 KTS
Visibility
7,998 meters
Flight Rules
MVFR
Conditions
Light Rain
Cloud Levels
  • Broken at 1,100' AGL
  • Few at 2,000' AGL
Temperature
24°C / 75°F
Dewpoint
21°C / 70°F
Humidity
83%
Altimeter
29.79" Hg
Pressure
1008.92 hPa
Previous

1 hour ago

DIAP 200400Z 31009KT 8000 -RA BKN011 FEW020CB 24/22 Q1009 NOSIG
Observed
Feb-20 @ 04:00 UTC
Wind
  • 310° at 9 KTS
Visibility
7,998 meters
Flight Rules
MVFR
Conditions
Light Rain
Cloud Levels
  • Broken at 1,100' AGL
  • Few at 2,000' AGL
Temperature
24°C / 75°F
Dewpoint
22°C / 72°F
Humidity
89%
Altimeter
29.79" Hg
Pressure
1008.92 hPa